sensor_id;sensor_type;location;lat;lon;timestamp;temperature;humidity
23869;DHT22;12115;47.128;15.422;2022-12-20T00:01:31;-0.20;99.90
23869;DHT22;12115;47.128;15.422;2022-12-20T00:04:00;-0.20;99.90
23869;DHT22;12115;47.128;15.422;2022-12-20T00:06:33;-0.20;99.90
23869;DHT22;12115;47.128;15.422;2022-12-20T00:09:03;-0.20;99.90
23869;DHT22;12115;47.128;15.422;2022-12-20T00:11:30;-0.20;99.90
23869;DHT22;12115;47.128;15.422;2022-12-20T00:13:58;-0.20;99.90
23869;DHT22;12115;47.128;15.422;2022-12-20T00:16:26;-0.20;99.90
23869;DHT22;12115;47.128;15.422;2022-12-20T00:18:56;-0.20;99.90
23869;DHT22;12115;47.128;15.422;2022-12-20T00:21:24;-0.20;99.90
23869;DHT22;12115;47.128;15.422;2022-12-20T00:23:52;-0.20;99.90
23869;DHT22;12115;47.128;15.422;2022-12-20T00:26:22;-0.20;99.90
23869;DHT22;12115;47.128;15.422;2022-12-20T00:28:51;-0.20;99.90
23869;DHT22;12115;47.128;15.422;2022-12-20T00:31:20;-0.20;99.90
23869;DHT22;12115;47.128;15.422;2022-12-20T00:33:48;-0.30;99.90
23869;DHT22;12115;47.128;15.422;2022-12-20T00:36:17;-0.30;99.90
23869;DHT22;12115;47.128;15.422;2022-12-20T00:38:47;-0.30;99.90
23869;DHT22;12115;47.128;15.422;2022-12-20T00:41:17;-0.30;99.90
23869;DHT22;12115;47.128;15.422;2022-12-20T00:43:45;-0.30;99.90
23869;DHT22;12115;47.128;15.422;2022-12-20T00:46:13;-0.30;99.90
23869;DHT22;12115;47.128;15.422;2022-12-20T00:48:41;-0.30;99.90
23869;DHT22;12115;47.128;15.422;2022-12-20T00:51:19;-0.20;99.90
23869;DHT22;12115;47.128;15.422;2022-12-20T00:53:47;-0.30;99.90
23869;DHT22;12115;47.128;15.422;2022-12-20T00:56:15;-0.30;99.90
23869;DHT22;12115;47.128;15.422;2022-12-20T00:58:43;-0.30;99.90
23869;DHT22;12115;47.128;15.422;2022-12-20T01:01:40;-0.30;99.90
23869;DHT22;12115;47.128;15.422;2022-12-20T01:04:07;-0.30;99.90
23869;DHT22;12115;47.128;15.422;2022-12-20T01:06:35;-0.30;99.90
23869;DHT22;12115;47.128;15.422;2022-12-20T01:09:03;-0.30;99.90
23869;DHT22;12115;47.128;15.422;2022-12-20T01:11:36;-0.30;99.90
23869;DHT22;12115;47.128;15.422;2022-12-20T01:14:08;-0.30;99.90
23869;DHT22;12115;47.128;15.422;2022-12-20T01:16:39;-0.30;99.90
23869;DHT22;12115;47.128;15.422;2022-12-20T01:19:09;-0.30;99.90
23869;DHT22;12115;47.128;15.422;2022-12-20T01:21:37;-0.30;99.90
23869;DHT22;12115;47.128;15.422;2022-12-20T01:24:15;-0.30;99.90
23869;DHT22;12115;47.128;15.422;2022-12-20T01:26:43;-0.20;99.90
23869;DHT22;12115;47.128;15.422;2022-12-20T01:29:10;-0.30;99.90
23869;DHT22;12115;47.128;15.422;2022-12-20T01:31:37;-0.20;99.90
23869;DHT22;12115;47.128;15.422;2022-12-20T01:34:05;-0.20;99.90
23869;DHT22;12115;47.128;15.422;2022-12-20T01:36:34;-0.20;99.90
23869;DHT22;12115;47.128;15.422;2022-12-20T01:39:04;-0.30;99.90
23869;DHT22;12115;47.128;15.422;2022-12-20T01:41:32;-0.30;99.90
23869;DHT22;12115;47.128;15.422;2022-12-20T01:44:06;-0.30;99.90
23869;DHT22;12115;47.128;15.422;2022-12-20T01:46:53;-0.30;99.90
23869;DHT22;12115;47.128;15.422;2022-12-20T01:49:25;-0.20;99.90
23869;DHT22;12115;47.128;15.422;2022-12-20T01:55:02;-0.30;99.90
23869;DHT22;12115;47.128;15.422;2022-12-20T01:57:58;-0.30;99.90
23869;DHT22;12115;47.128;15.422;2022-12-20T02:00:27;-0.30;99.90
23869;DHT22;12115;47.128;15.422;2022-12-20T02:02:58;-0.30;99.90
23869;DHT22;12115;47.128;15.422;2022-12-20T02:05:26;-0.30;99.90
23869;DHT22;12115;47.128;15.422;2022-12-20T02:07:55;-0.20;99.90
23869;DHT22;12115;47.128;15.422;2022-12-20T02:10:26;-0.20;99.90
23869;DHT22;12115;47.128;15.422;2022-12-20T02:13:06;-0.30;99.90
23869;DHT22;12115;47.128;15.422;2022-12-20T02:18:24;-0.20;99.90
23869;DHT22;12115;47.128;15.422;2022-12-20T02:21:01;-0.20;99.90
23869;DHT22;12115;47.128;15.422;2022-12-20T02:26:36;-0.20;99.90
23869;DHT22;12115;47.128;15.422;2022-12-20T02:32:16;-0.40;99.90
23869;DHT22;12115;47.128;15.422;2022-12-20T02:34:45;-0.40;99.90
23869;DHT22;12115;47.128;15.422;2022-12-20T02:37:13;-0.40;99.90
23869;DHT22;12115;47.128;15.422;2022-12-20T02:39:41;-0.40;99.90
23869;DHT22;12115;47.128;15.422;2022-12-20T02:42:13;-0.40;99.90
23869;DHT22;12115;47.128;15.422;2022-12-20T02:44:53;-0.40;99.90
23869;DHT22;12115;47.128;15.422;2022-12-20T02:47:49;-0.40;99.90
23869;DHT22;12115;47.128;15.422;2022-12-20T02:50:35;-0.40;99.90
23869;DHT22;12115;47.128;15.422;2022-12-20T02:53:05;-0.40;99.90
23869;DHT22;12115;47.128;15.422;2022-12-20T02:55:41;-0.40;99.90
23869;DHT22;12115;47.128;15.422;2022-12-20T02:58:22;-0.40;99.90
23869;DHT22;12115;47.128;15.422;2022-12-20T03:00:52;-0.40;99.90
23869;DHT22;12115;47.128;15.422;2022-12-20T03:03:22;-0.40;99.90
23869;DHT22;12115;47.128;15.422;2022-12-20T03:05:53;-0.30;99.90
23869;DHT22;12115;47.128;15.422;2022-12-20T03:08:22;-0.30;99.90
23869;DHT22;12115;47.128;15.422;2022-12-20T03:10:50;-0.30;99.90
23869;DHT22;12115;47.128;15.422;2022-12-20T03:13:19;-0.40;99.90
23869;DHT22;12115;47.128;15.422;2022-12-20T03:15:55;-0.40;99.90
23869;DHT22;12115;47.128;15.422;2022-12-20T03:18:22;-0.30;99.90
23869;DHT22;12115;47.128;15.422;2022-12-20T03:20:49;-0.40;99.90
23869;DHT22;12115;47.128;15.422;2022-12-20T03:23:16;-0.40;99.90
23869;DHT22;12115;47.128;15.422;2022-12-20T03:25:43;-0.30;99.90
23869;DHT22;12115;47.128;15.422;2022-12-20T03:28:18;-0.40;99.90
23869;DHT22;12115;47.128;15.422;2022-12-20T03:30:46;-0.40;99.90
23869;DHT22;12115;47.128;15.422;2022-12-20T03:33:13;-0.40;99.90
23869;DHT22;12115;47.128;15.422;2022-12-20T03:35:41;-0.40;99.90
23869;DHT22;12115;47.128;15.422;2022-12-20T03:38:09;-0.50;99.90
23869;DHT22;12115;47.128;15.422;2022-12-20T03:40:36;-0.50;99.90
23869;DHT22;12115;47.128;15.422;2022-12-20T03:43:04;-0.50;99.90
23869;DHT22;12115;47.128;15.422;2022-12-20T03:45:31;-0.50;99.90
23869;DHT22;12115;47.128;15.422;2022-12-20T03:47:58;-0.50;99.90
23869;DHT22;12115;47.128;15.422;2022-12-20T03:50:27;-0.40;99.90
23869;DHT22;12115;47.128;15.422;2022-12-20T03:52:54;-0.40;99.90
23869;DHT22;12115;47.128;15.422;2022-12-20T03:55:21;-0.50;99.90
23869;DHT22;12115;47.128;15.422;2022-12-20T03:57:49;-0.50;99.90
23869;DHT22;12115;47.128;15.422;2022-12-20T04:00:27;-0.50;99.90
23869;DHT22;12115;47.128;15.422;2022-12-20T04:03:09;-0.50;99.90
23869;DHT22;12115;47.128;15.422;2022-12-20T04:05:36;-0.50;99.90
23869;DHT22;12115;47.128;15.422;2022-12-20T04:08:05;-0.60;99.90
23869;DHT22;12115;47.128;15.422;2022-12-20T04:10:32;-0.60;99.90
23869;DHT22;12115;47.128;15.422;2022-12-20T04:13:19;-0.60;99.90
23869;DHT22;12115;47.128;15.422;2022-12-20T04:15:46;-0.50;99.90
23869;DHT22;12115;47.128;15.422;2022-12-20T04:18:15;-0.50;99.90
23869;DHT22;12115;47.128;15.422;2022-12-20T04:20:42;-0.50;99.90
23869;DHT22;12115;47.128;15.422;2022-12-20T04:23:18;-0.50;99.90
23869;DHT22;12115;47.128;15.422;2022-12-20T04:25:47;-0.50;99.90
23869;DHT22;12115;47.128;15.422;2022-12-20T04:28:15;-0.50;99.90
23869;DHT22;12115;47.128;15.422;2022-12-20T04:30:43;-0.50;99.90
23869;DHT22;12115;47.128;15.422;2022-12-20T04:33:14;-0.40;99.90
23869;DHT22;12115;47.128;15.422;2022-12-20T04:35:41;-0.40;99.90
23869;DHT22;12115;47.128;15.422;2022-12-20T04:38:09;-0.50;99.90
23869;DHT22;12115;47.128;15.422;2022-12-20T04:40:36;-0.50;99.90
23869;DHT22;12115;47.128;15.422;2022-12-20T04:43:06;-0.40;99.90
23869;DHT22;12115;47.128;15.422;2022-12-20T04:45:33;-0.40;99.90
23869;DHT22;12115;47.128;15.422;2022-12-20T04:48:01;-0.40;99.90
23869;DHT22;12115;47.128;15.422;2022-12-20T04:50:48;-0.40;99.90
23869;DHT22;12115;47.128;15.422;2022-12-20T04:53:16;-0.40;99.90
23869;DHT22;12115;47.128;15.422;2022-12-20T04:56:02;-0.50;99.90
23869;DHT22;12115;47.128;15.422;2022-12-20T04:58:30;-0.50;99.90
23869;DHT22;12115;47.128;15.422;2022-12-20T05:00:58;-0.60;99.90
23869;DHT22;12115;47.128;15.422;2022-12-20T05:03:30;-0.60;99.90
23869;DHT22;12115;47.128;15.422;2022-12-20T05:05:58;-0.60;99.90
23869;DHT22;12115;47.128;15.422;2022-12-20T05:08:25;-0.50;99.90
23869;DHT22;12115;47.128;15.422;2022-12-20T05:10:52;-0.50;99.90
23869;DHT22;12115;47.128;15.422;2022-12-20T05:13:20;-0.60;99.90
23869;DHT22;12115;47.128;15.422;2022-12-20T05:15:54;-0.60;99.90
23869;DHT22;12115;47.128;15.422;2022-12-20T05:18:26;-0.60;99.90
23869;DHT22;12115;47.128;15.422;2022-12-20T05:21:00;-0.60;99.90
23869;DHT22;12115;47.128;15.422;2022-12-20T05:23:48;-0.60;99.90
23869;DHT22;12115;47.128;15.422;2022-12-20T05:26:47;-0.60;99.90
23869;DHT22;12115;47.128;15.422;2022-12-20T05:29:16;-0.60;99.90
23869;DHT22;12115;47.128;15.422;2022-12-20T05:31:43;-0.60;99.90
23869;DHT22;12115;47.128;15.422;2022-12-20T05:34:11;-0.60;99.90
23869;DHT22;12115;47.128;15.422;2022-12-20T05:36:40;-0.60;99.90
23869;DHT22;12115;47.128;15.422;2022-12-20T05:39:07;-0.70;99.90
23869;DHT22;12115;47.128;15.422;2022-12-20T05:41:38;-0.70;99.90
23869;DHT22;12115;47.128;15.422;2022-12-20T05:44:07;-0.70;99.90
23869;DHT22;12115;47.128;15.422;2022-12-20T05:46:37;-0.60;99.90
23869;DHT22;12115;47.128;15.422;2022-12-20T05:49:09;-0.60;99.90
23869;DHT22;12115;47.128;15.422;2022-12-20T05:51:37;-0.60;99.90
23869;DHT22;12115;47.128;15.422;2022-12-20T05:54:23;-0.50;99.90
23869;DHT22;12115;47.128;15.422;2022-12-20T05:57:10;-0.50;99.90
23869;DHT22;12115;47.128;15.422;2022-12-20T05:59:39;-0.60;99.90
23869;DHT22;12115;47.128;15.422;2022-12-20T06:02:13;-0.60;99.90
23869;DHT22;12115;47.128;15.422;2022-12-20T06:04:42;-0.60;99.90
23869;DHT22;12115;47.128;15.422;2022-12-20T06:07:18;-0.60;99.90
23869;DHT22;12115;47.128;15.422;2022-12-20T06:09:49;-0.60;99.90
23869;DHT22;12115;47.128;15.422;2022-12-20T06:12:18;-0.60;99.90
23869;DHT22;12115;47.128;15.422;2022-12-20T06:14:46;-0.60;99.90
23869;DHT22;12115;47.128;15.422;2022-12-20T06:17:13;-0.70;99.90
23869;DHT22;12115;47.128;15.422;2022-12-20T06:19:41;-0.80;99.90
23869;DHT22;12115;47.128;15.422;2022-12-20T06:22:10;-0.70;99.90
23869;DHT22;12115;47.128;15.422;2022-12-20T06:24:54;-0.70;99.90
23869;DHT22;12115;47.128;15.422;2022-12-20T06:27:25;-0.70;99.90
23869;DHT22;12115;47.128;15.422;2022-12-20T06:30:13;-0.60;99.90
23869;DHT22;12115;47.128;15.422;2022-12-20T06:33:03;-0.70;99.90
23869;DHT22;12115;47.128;15.422;2022-12-20T06:35:31;-0.70;99.90
23869;DHT22;12115;47.128;15.422;2022-12-20T06:37:58;-0.70;99.90
23869;DHT22;12115;47.128;15.422;2022-12-20T06:40:28;-0.70;99.90
23869;DHT22;12115;47.128;15.422;2022-12-20T06:42:59;-0.70;99.90
23869;DHT22;12115;47.128;15.422;2022-12-20T06:45:26;-0.60;99.90
23869;DHT22;12115;47.128;15.422;2022-12-20T06:47:54;-0.60;99.90
23869;DHT22;12115;47.128;15.422;2022-12-20T06:50:23;-0.60;99.90
23869;DHT22;12115;47.128;15.422;2022-12-20T06:52:50;-0.70;99.90
23869;DHT22;12115;47.128;15.422;2022-12-20T06:55:17;-0.60;99.90
23869;DHT22;12115;47.128;15.422;2022-12-20T06:57:45;-0.60;99.90
23869;DHT22;12115;47.128;15.422;2022-12-20T07:00:14;-0.60;99.90
23869;DHT22;12115;47.128;15.422;2022-12-20T07:02:41;-0.60;99.90
23869;DHT22;12115;47.128;15.422;2022-12-20T07:05:11;-0.60;99.90
23869;DHT22;12115;47.128;15.422;2022-12-20T07:07:42;-0.60;99.90
23869;DHT22;12115;47.128;15.422;2022-12-20T07:10:20;-0.60;99.90
23869;DHT22;12115;47.128;15.422;2022-12-20T07:12:48;-0.80;99.90
23869;DHT22;12115;47.128;15.422;2022-12-20T07:15:31;-0.80;99.90
23869;DHT22;12115;47.128;15.422;2022-12-20T07:18:11;-1.10;99.90
23869;DHT22;12115;47.128;15.422;2022-12-20T07:21:03;-1.00;99.90
23869;DHT22;12115;47.128;15.422;2022-12-20T07:23:34;-0.80;99.90
23869;DHT22;12115;47.128;15.422;2022-12-20T07:26:11;-0.80;99.90
23869;DHT22;12115;47.128;15.422;2022-12-20T07:28:45;-0.80;99.90
23869;DHT22;12115;47.128;15.422;2022-12-20T07:31:24;-0.90;99.90
23869;DHT22;12115;47.128;15.422;2022-12-20T07:33:58;-0.80;99.90
23869;DHT22;12115;47.128;15.422;2022-12-20T07:36:35;-0.80;99.90
23869;DHT22;12115;47.128;15.422;2022-12-20T07:39:22;-0.70;99.90
23869;DHT22;12115;47.128;15.422;2022-12-20T07:41:54;-0.70;99.90
23869;DHT22;12115;47.128;15.422;2022-12-20T07:44:42;-0.70;99.90
23869;DHT22;12115;47.128;15.422;2022-12-20T07:47:25;-0.60;99.90
23869;DHT22;12115;47.128;15.422;2022-12-20T07:50:03;-0.70;99.90
23869;DHT22;12115;47.128;15.422;2022-12-20T07:52:40;-0.80;99.90
23869;DHT22;12115;47.128;15.422;2022-12-20T07:55:10;-0.70;99.90
23869;DHT22;12115;47.128;15.422;2022-12-20T07:57:53;-0.70;99.90
23869;DHT22;12115;47.128;15.422;2022-12-20T08:00:28;-0.80;99.90
23869;DHT22;12115;47.128;15.422;2022-12-20T08:05:38;-0.80;99.90
23869;DHT22;12115;47.128;15.422;2022-12-20T08:08:08;-1.00;99.90
23869;DHT22;12115;47.128;15.422;2022-12-20T08:10:36;-0.90;99.90
23869;DHT22;12115;47.128;15.422;2022-12-20T08:13:11;-0.90;99.90
23869;DHT22;12115;47.128;15.422;2022-12-20T08:15:44;-0.90;99.90
23869;DHT22;12115;47.128;15.422;2022-12-20T08:18:14;-0.90;99.90
23869;DHT22;12115;47.128;15.422;2022-12-20T08:20:47;-0.90;99.90
23869;DHT22;12115;47.128;15.422;2022-12-20T08:23:36;-0.90;99.90
23869;DHT22;12115;47.128;15.422;2022-12-20T08:26:13;-1.00;99.90
23869;DHT22;12115;47.128;15.422;2022-12-20T08:28:44;-0.90;99.90
23869;DHT22;12115;47.128;15.422;2022-12-20T08:31:14;-0.80;99.90
23869;DHT22;12115;47.128;15.422;2022-12-20T08:33:44;-0.80;99.90
23869;DHT22;12115;47.128;15.422;2022-12-20T08:36:17;-0.70;99.90
23869;DHT22;12115;47.128;15.422;2022-12-20T08:38:49;-0.70;99.90
23869;DHT22;12115;47.128;15.422;2022-12-20T08:41:27;-0.70;99.90
23869;DHT22;12115;47.128;15.422;2022-12-20T08:43:58;-0.70;99.90
23869;DHT22;12115;47.128;15.422;2022-12-20T08:46:32;-0.70;99.90
23869;DHT22;12115;47.128;15.422;2022-12-20T08:49:06;-0.70;99.90
23869;DHT22;12115;47.128;15.422;2022-12-20T08:51:36;-0.60;99.90
23869;DHT22;12115;47.128;15.422;2022-12-20T08:54:20;-0.60;99.90
23869;DHT22;12115;47.128;15.422;2022-12-20T08:56:59;-0.60;99.90
23869;DHT22;12115;47.128;15.422;2022-12-20T08:59:36;-0.60;99.90
23869;DHT22;12115;47.128;15.422;2022-12-20T09:02:26;-0.50;99.90
23869;DHT22;12115;47.128;15.422;2022-12-20T09:05:00;-0.60;99.90
23869;DHT22;12115;47.128;15.422;2022-12-20T09:07:36;-0.50;99.90
23869;DHT22;12115;47.128;15.422;2022-12-20T09:10:12;-0.60;99.90
23869;DHT22;12115;47.128;15.422;2022-12-20T09:12:43;-0.50;99.90
23869;DHT22;12115;47.128;15.422;2022-12-20T09:15:24;-0.60;99.90
23869;DHT22;12115;47.128;15.422;2022-12-20T09:18:16;-0.50;99.90
23869;DHT22;12115;47.128;15.422;2022-12-20T09:20:49;-0.60;99.90
23869;DHT22;12115;47.128;15.422;2022-12-20T09:23:19;-0.60;99.90
23869;DHT22;12115;47.128;15.422;2022-12-20T09:26:21;-0.60;99.90
23869;DHT22;12115;47.128;15.422;2022-12-20T09:28:57;-0.50;99.90
23869;DHT22;12115;47.128;15.422;2022-12-20T09:31:31;-0.50;99.90
23869;DHT22;12115;47.128;15.422;2022-12-20T09:34:10;-0.40;99.90
23869;DHT22;12115;47.128;15.422;2022-12-20T09:36:41;-0.50;99.90
23869;DHT22;12115;47.128;15.422;2022-12-20T09:39:17;-0.40;99.90
23869;DHT22;12115;47.128;15.422;2022-12-20T09:41:45;-0.40;99.90
23869;DHT22;12115;47.128;15.422;2022-12-20T09:44:55;-0.30;99.90
23869;DHT22;12115;47.128;15.422;2022-12-20T09:47:34;-0.30;99.90
23869;DHT22;12115;47.128;15.422;2022-12-20T09:50:13;-0.30;99.90
23869;DHT22;12115;47.128;15.422;2022-12-20T09:52:59;-0.20;99.90
23869;DHT22;12115;47.128;15.422;2022-12-20T09:56:21;-0.30;99.90
23869;DHT22;12115;47.128;15.422;2022-12-20T09:59:21;-0.40;99.90
23869;DHT22;12115;47.128;15.422;2022-12-20T10:01:54;-0.40;99.90
23869;DHT22;12115;47.128;15.422;2022-12-20T10:04:29;-0.40;99.90
23869;DHT22;12115;47.128;15.422;2022-12-20T10:13:37;-0.40;99.90
23869;DHT22;12115;47.128;15.422;2022-12-20T10:22:33;-0.40;99.90
23869;DHT22;12115;47.128;15.422;2022-12-20T10:25:23;-0.40;99.90
23869;DHT22;12115;47.128;15.422;2022-12-20T10:27:54;-0.30;99.90
23869;DHT22;12115;47.128;15.422;2022-12-20T10:30:38;-0.30;99.90
23869;DHT22;12115;47.128;15.422;2022-12-20T10:33:19;-0.30;99.90
23869;DHT22;12115;47.128;15.422;2022-12-20T10:39:45;-0.30;99.90
23869;DHT22;12115;47.128;15.422;2022-12-20T10:42:42;-0.30;99.90
23869;DHT22;12115;47.128;15.422;2022-12-20T10:48:01;-0.30;99.90
23869;DHT22;12115;47.128;15.422;2022-12-20T10:50:38;-0.30;99.90
23869;DHT22;12115;47.128;15.422;2022-12-20T10:53:21;-0.30;99.90
23869;DHT22;12115;47.128;15.422;2022-12-20T10:56:27;-0.30;99.90
23869;DHT22;12115;47.128;15.422;2022-12-20T11:01:56;-0.20;99.90
23869;DHT22;12115;47.128;15.422;2022-12-20T11:04:59;-0.30;99.90
23869;DHT22;12115;47.128;15.422;2022-12-20T11:08:16;-0.20;99.90
23869;DHT22;12115;47.128;15.422;2022-12-20T11:11:17;-0.20;99.90
23869;DHT22;12115;47.128;15.422;2022-12-20T11:13:51;-0.10;99.90
23869;DHT22;12115;47.128;15.422;2022-12-20T11:19:37;-0.20;99.90
23869;DHT22;12115;47.128;15.422;2022-12-20T11:41:15;-0.30;99.90
23869;DHT22;12115;47.128;15.422;2022-12-20T11:44:08;-0.30;99.90
23869;DHT22;12115;47.128;15.422;2022-12-20T12:01:03;-0.10;99.90
23869;DHT22;12115;47.128;15.422;2022-12-20T12:03:44;-0.20;99.90
23869;DHT22;12115;47.128;15.422;2022-12-20T12:09:55;-0.20;99.90
23869;DHT22;12115;47.128;15.422;2022-12-20T12:12:46;-0.30;99.90
23869;DHT22;12115;47.128;15.422;2022-12-20T12:15:57;-0.30;99.90
23869;DHT22;12115;47.128;15.422;2022-12-20T12:18:38;-0.40;99.90
23869;DHT22;12115;47.128;15.422;2022-12-20T12:21:31;-0.40;99.90
23869;DHT22;12115;47.128;15.422;2022-12-20T12:24:53;-0.40;99.90
23869;DHT22;12115;47.128;15.422;2022-12-20T12:27:25;-0.40;99.90
23869;DHT22;12115;47.128;15.422;2022-12-20T12:30:01;-0.40;99.90
23869;DHT22;12115;47.128;15.422;2022-12-20T12:33:10;-0.30;99.90
23869;DHT22;12115;47.128;15.422;2022-12-20T12:36:18;-0.40;99.90
23869;DHT22;12115;47.128;15.422;2022-12-20T12:50:30;-0.40;99.90
23869;DHT22;12115;47.128;15.422;2022-12-20T12:53:31;-0.30;99.90
23869;DHT22;12115;47.128;15.422;2022-12-20T13:08:02;-0.40;99.90
23869;DHT22;12115;47.128;15.422;2022-12-20T13:13:22;-0.40;99.90
23869;DHT22;12115;47.128;15.422;2022-12-20T13:16:09;-0.40;99.90
23869;DHT22;12115;47.128;15.422;2022-12-20T13:18:56;-0.40;99.90
23869;DHT22;12115;47.128;15.422;2022-12-20T13:21:31;-0.40;99.90
23869;DHT22;12115;47.128;15.422;2022-12-20T13:24:46;-0.40;99.90
23869;DHT22;12115;47.128;15.422;2022-12-20T13:27:35;-0.50;99.90
23869;DHT22;12115;47.128;15.422;2022-12-20T13:30:25;-0.50;99.90
23869;DHT22;12115;47.128;15.422;2022-12-20T13:33:24;-0.70;99.90
23869;DHT22;12115;47.128;15.422;2022-12-20T13:36:32;-0.70;99.90
23869;DHT22;12115;47.128;15.422;2022-12-20T13:42:05;-0.50;99.90
23869;DHT22;12115;47.128;15.422;2022-12-20T13:44:49;-0.50;99.90
23869;DHT22;12115;47.128;15.422;2022-12-20T13:47:31;-0.50;99.90
23869;DHT22;12115;47.128;15.422;2022-12-20T13:50:35;-0.50;99.90
23869;DHT22;12115;47.128;15.422;2022-12-20T13:53:18;-0.50;99.90
23869;DHT22;12115;47.128;15.422;2022-12-20T13:55:56;-0.50;99.90
23869;DHT22;12115;47.128;15.422;2022-12-20T13:58:33;-0.50;99.90
23869;DHT22;12115;47.128;15.422;2022-12-20T14:01:10;-0.50;99.90
23869;DHT22;12115;47.128;15.422;2022-12-20T14:03:48;-0.50;99.90
23869;DHT22;12115;47.128;15.422;2022-12-20T14:06:18;-0.50;99.90
23869;DHT22;12115;47.128;15.422;2022-12-20T14:08:53;-0.40;99.90
23869;DHT22;12115;47.128;15.422;2022-12-20T14:11:24;-0.30;99.90
23869;DHT22;12115;47.128;15.422;2022-12-20T14:14:03;-0.30;99.90
23869;DHT22;12115;47.128;15.422;2022-12-20T14:16:38;-0.30;99.90
23869;DHT22;12115;47.128;15.422;2022-12-20T14:19:13;-0.30;99.90
23869;DHT22;12115;47.128;15.422;2022-12-20T14:21:44;-0.30;99.90
23869;DHT22;12115;47.128;15.422;2022-12-20T14:24:17;-0.30;99.90
23869;DHT22;12115;47.128;15.422;2022-12-20T14:26:50;-0.30;99.90
23869;DHT22;12115;47.128;15.422;2022-12-20T14:29:26;-0.40;99.90
23869;DHT22;12115;47.128;15.422;2022-12-20T14:32:02;-0.40;99.90
23869;DHT22;12115;47.128;15.422;2022-12-20T14:34:44;-0.40;99.90
23869;DHT22;12115;47.128;15.422;2022-12-20T14:37:30;-0.40;99.90
23869;DHT22;12115;47.128;15.422;2022-12-20T14:42:46;-0.30;99.90
23869;DHT22;12115;47.128;15.422;2022-12-20T14:45:24;-0.30;99.90
23869;DHT22;12115;47.128;15.422;2022-12-20T14:48:00;-0.40;99.90
23869;DHT22;12115;47.128;15.422;2022-12-20T14:50:40;-0.40;99.90
23869;DHT22;12115;47.128;15.422;2022-12-20T14:53:22;-0.30;99.90
23869;DHT22;12115;47.128;15.422;2022-12-20T14:56:03;-0.40;99.90
23869;DHT22;12115;47.128;15.422;2022-12-20T14:58:36;-0.40;99.90
23869;DHT22;12115;47.128;15.422;2022-12-20T15:01:21;-0.40;99.90
23869;DHT22;12115;47.128;15.422;2022-12-20T15:03:53;-0.50;99.90
23869;DHT22;12115;47.128;15.422;2022-12-20T15:06:43;-0.50;99.90
23869;DHT22;12115;47.128;15.422;2022-12-20T15:09:20;-0.40;99.90
23869;DHT22;12115;47.128;15.422;2022-12-20T15:11:55;-0.50;99.90
23869;DHT22;12115;47.128;15.422;2022-12-20T15:14:34;-0.40;99.90
23869;DHT22;12115;47.128;15.422;2022-12-20T15:17:14;-0.40;99.90
23869;DHT22;12115;47.128;15.422;2022-12-20T15:19:42;-0.40;99.90
23869;DHT22;12115;47.128;15.422;2022-12-20T15:22:17;-0.40;99.90
23869;DHT22;12115;47.128;15.422;2022-12-20T15:24:56;-0.40;99.90
23869;DHT22;12115;47.128;15.422;2022-12-20T15:27:24;-0.30;99.90
23869;DHT22;12115;47.128;15.422;2022-12-20T15:29:52;-0.30;99.90
23869;DHT22;12115;47.128;15.422;2022-12-20T15:32:27;-0.30;99.90
23869;DHT22;12115;47.128;15.422;2022-12-20T15:34:56;-0.40;99.90
23869;DHT22;12115;47.128;15.422;2022-12-20T15:37:29;-0.40;99.90
23869;DHT22;12115;47.128;15.422;2022-12-20T15:39:57;-0.40;99.90
23869;DHT22;12115;47.128;15.422;2022-12-20T15:42:35;-0.40;99.90
23869;DHT22;12115;47.128;15.422;2022-12-20T15:45:13;-0.40;99.90
23869;DHT22;12115;47.128;15.422;2022-12-20T15:47:48;-0.50;99.90
23869;DHT22;12115;47.128;15.422;2022-12-20T15:50:16;-0.50;99.90
23869;DHT22;12115;47.128;15.422;2022-12-20T15:52:52;-0.40;99.90
23869;DHT22;12115;47.128;15.422;2022-12-20T15:55:23;-0.40;99.90
23869;DHT22;12115;47.128;15.422;2022-12-20T15:58:05;-0.40;99.90
23869;DHT22;12115;47.128;15.422;2022-12-20T16:00:38;-0.40;99.90
23869;DHT22;12115;47.128;15.422;2022-12-20T16:03:23;-0.30;99.90
23869;DHT22;12115;47.128;15.422;2022-12-20T16:05:53;-0.40;99.90
23869;DHT22;12115;47.128;15.422;2022-12-20T16:08:22;-0.40;99.90
23869;DHT22;12115;47.128;15.422;2022-12-20T16:10:51;-0.40;99.90
23869;DHT22;12115;47.128;15.422;2022-12-20T16:13:26;-0.50;99.90
23869;DHT22;12115;47.128;15.422;2022-12-20T16:15:54;-0.50;99.90
23869;DHT22;12115;47.128;15.422;2022-12-20T16:18:32;-0.50;99.90
23869;DHT22;12115;47.128;15.422;2022-12-20T16:21:07;-0.50;99.90
23869;DHT22;12115;47.128;15.422;2022-12-20T16:23:45;-0.50;99.90
23869;DHT22;12115;47.128;15.422;2022-12-20T16:26:20;-0.40;99.90
23869;DHT22;12115;47.128;15.422;2022-12-20T16:28:49;-0.60;99.90
23869;DHT22;12115;47.128;15.422;2022-12-20T16:34:15;-0.50;99.90
23869;DHT22;12115;47.128;15.422;2022-12-20T16:36:43;-0.50;99.90
23869;DHT22;12115;47.128;15.422;2022-12-20T16:39:12;-0.50;99.90
23869;DHT22;12115;47.128;15.422;2022-12-20T16:41:40;-0.50;99.90
23869;DHT22;12115;47.128;15.422;2022-12-20T16:44:15;-0.60;99.90
23869;DHT22;12115;47.128;15.422;2022-12-20T16:46:42;-0.70;99.90
23869;DHT22;12115;47.128;15.422;2022-12-20T16:49:11;-0.70;99.90
23869;DHT22;12115;47.128;15.422;2022-12-20T16:51:47;-0.70;99.90
23869;DHT22;12115;47.128;15.422;2022-12-20T16:54:19;-0.60;99.90
23869;DHT22;12115;47.128;15.422;2022-12-20T16:56:49;-0.60;99.90
23869;DHT22;12115;47.128;15.422;2022-12-20T16:59:22;-0.60;99.90
23869;DHT22;12115;47.128;15.422;2022-12-20T17:01:54;-0.60;99.90
23869;DHT22;12115;47.128;15.422;2022-12-20T17:04:22;-0.70;99.90
23869;DHT22;12115;47.128;15.422;2022-12-20T17:06:50;-0.70;99.90
23869;DHT22;12115;47.128;15.422;2022-12-20T17:09:18;-0.80;99.90
23869;DHT22;12115;47.128;15.422;2022-12-20T17:11:45;-0.70;99.90
23869;DHT22;12115;47.128;15.422;2022-12-20T17:14:13;-0.70;99.90
23869;DHT22;12115;47.128;15.422;2022-12-20T17:16:41;-0.70;99.90
23869;DHT22;12115;47.128;15.422;2022-12-20T17:19:08;-0.60;99.90
23869;DHT22;12115;47.128;15.422;2022-12-20T17:21:42;-0.60;99.90
23869;DHT22;12115;47.128;15.422;2022-12-20T17:24:28;-0.60;99.90
23869;DHT22;12115;47.128;15.422;2022-12-20T17:26:55;-0.60;99.90
23869;DHT22;12115;47.128;15.422;2022-12-20T17:29:22;-0.60;99.90
23869;DHT22;12115;47.128;15.422;2022-12-20T17:31:49;-0.50;99.90
23869;DHT22;12115;47.128;15.422;2022-12-20T17:34:25;-0.50;99.90
23869;DHT22;12115;47.128;15.422;2022-12-20T17:36:55;-0.50;99.90
23869;DHT22;12115;47.128;15.422;2022-12-20T17:39:23;-0.50;99.90
23869;DHT22;12115;47.128;15.422;2022-12-20T17:41:51;-0.60;99.90
23869;DHT22;12115;47.128;15.422;2022-12-20T17:44:22;-0.60;99.90
23869;DHT22;12115;47.128;15.422;2022-12-20T17:46:51;-0.60;99.90
23869;DHT22;12115;47.128;15.422;2022-12-20T17:49:19;-0.60;99.90
23869;DHT22;12115;47.128;15.422;2022-12-20T17:51:46;-0.60;99.90
23869;DHT22;12115;47.128;15.422;2022-12-20T17:54:25;-0.60;99.90
23869;DHT22;12115;47.128;15.422;2022-12-20T17:57:17;-0.50;99.90